首页
METAR-TAF:

METAR-TAF

机场 :

蒂瓦特機場

蒂瓦特, 蒙特內哥羅

纬度: 42-24N, 经度: 018-44E, 海拔: 5米

当前天气观测

该预报发布于43分钟前的14:00 UTC
风速4节,风向多变
温度 14°C
湿度 58%
气压 1024 hPa
能见度10公里或以上
1500米以下无云,无积雨云

METAR: LYTV 231400Z VRB04KT CAVOK 14/06 Q1024 NOSIG

时间: 15:43 (14:43 UTC)

预报

该预报发布于3小时和43分钟前的11:00 UTC
预报有效从23日的 12点(UTC)到 24日的 12点(UTC)
风速6节,风向西转西南
能见度10公里或以上
少量云层高于5000英尺

TAF: LYTV 231100Z 2312/2412 24006KT 9999 FEW050 TX15/2313Z TN01/2405Z

超过4000个机场的气象观测和天气预报(METAR&TAF报告)。

可查询的气象台以黄色和红色小点在地图上表示。

将鼠标移到小点上方,可查看气象台名称。

然后点击查看天气观测和预报。

如需切换地图:点击带黑十字的绿色按钮放大地图;点击带横线的绿色按钮缩小地图;或者点击绿色箭头查看邻近地区的地图。


METAR-TAF: